DAL2430 KPHX-KLAX
Flight info
| Callsign | DAL2430 |
|---|---|
| Flight time | N/A |
| Altitude | 34000 |
| Route | KEENS3 WLVRN ESTWD HLYWD1 |
| Aircraft | A320/M-SDE3FGHIRWY/LB1 |
Departure
| Time | N/A |
|---|---|
| Airport | Phoenix Sky Harbor International Airport (KPHX) |
Arrival
| Time | 2026-04-23 19:07 |
|---|---|
| Airport | Los Angeles International Airport (KLAX) |
| Time | Latitude | Longitude | Altitude | Speed | Heading |
|---|---|---|---|---|---|
| 2026-04-23 18:16 | 33.45205 | -112.73607 | 28614 ft | 369 kts | 269° |
| 2026-04-23 18:16 | 33.45312 | -112.76690 | 29224 ft | 373 kts | 272° |
| 2026-04-23 18:16 | 33.45686 | -112.79746 | 29749 ft | 380 kts | 277° |
| 2026-04-23 18:17 | 33.47341 | -112.85883 | 30784 ft | 393 kts | 287° |
| 2026-04-23 18:17 | 33.48412 | -112.88892 | 31354 ft | 393 kts | 287° |
| 2026-04-23 18:17 | 33.49470 | -112.91898 | 32054 ft | 390 kts | 286° |
| 2026-04-23 18:17 | 33.50513 | -112.94875 | 32817 ft | 385 kts | 286° |
| 2026-04-23 18:18 | 33.51542 | -112.97815 | 33545 ft | 381 kts | 286° |
| 2026-04-23 18:18 | 33.52557 | -113.00720 | 33879 ft | 376 kts | 286° |
| 2026-04-23 18:18 | 33.54549 | -113.06439 | 33943 ft | 373 kts | 285° |
| 2026-04-23 18:19 | 33.56536 | -113.12197 | 33943 ft | 377 kts | 285° |
| 2026-04-23 18:19 | 33.58551 | -113.17978 | 33944 ft | 375 kts | 285° |
| 2026-04-23 18:20 | 33.60562 | -113.23756 | 33947 ft | 376 kts | 285° |
| 2026-04-23 18:20 | 33.62553 | -113.29500 | 33947 ft | 375 kts | 285° |
| 2026-04-23 18:21 | 33.64553 | -113.35289 | 33944 ft | 376 kts | 285° |
| 2026-04-23 18:21 | 33.66552 | -113.41085 | 33951 ft | 376 kts | 285° |
| 2026-04-23 18:22 | 33.68550 | -113.46888 | 34004 ft | 376 kts | 285° |
| 2026-04-23 18:22 | 33.70534 | -113.52659 | 34008 ft | 376 kts | 285° |
| 2026-04-23 18:23 | 33.73526 | -113.61389 | 34003 ft | 377 kts | 285° |
| 2026-04-23 18:24 | 33.76518 | -113.70131 | 33958 ft | 377 kts | 285° |
| 2026-04-23 18:25 | 33.79492 | -113.78846 | 33958 ft | 378 kts | 285° |
| 2026-04-23 18:25 | 33.81486 | -113.84709 | 33966 ft | 379 kts | 285° |
| 2026-04-23 18:26 | 33.83483 | -113.90584 | 34000 ft | 380 kts | 285° |
| 2026-04-23 18:26 | 33.85455 | -113.96394 | 33968 ft | 376 kts | 285° |
| 2026-04-23 18:27 | 33.87430 | -114.02227 | 33963 ft | 377 kts | 285° |
| 2026-04-23 18:27 | 33.89406 | -114.08068 | 33965 ft | 378 kts | 285° |
| 2026-04-23 18:28 | 33.90959 | -114.14053 | 33959 ft | 372 kts | 277° |
| 2026-04-23 18:28 | 33.92008 | -114.20147 | 33958 ft | 372 kts | 277° |
| 2026-04-23 18:29 | 33.93042 | -114.26202 | 33955 ft | 371 kts | 277° |
| 2026-04-23 18:29 | 33.94073 | -114.32294 | 33955 ft | 371 kts | 277° |
| 2026-04-23 18:30 | 33.95103 | -114.38396 | 33951 ft | 372 kts | 277° |
| 2026-04-23 18:30 | 33.96133 | -114.44527 | 33961 ft | 374 kts | 277° |
| 2026-04-23 18:31 | 33.97158 | -114.50651 | 33958 ft | 376 kts | 277° |
| 2026-04-23 18:31 | 33.98190 | -114.56818 | 33960 ft | 376 kts | 277° |
| 2026-04-23 18:32 | 33.99218 | -114.62988 | 33960 ft | 376 kts | 277° |
| 2026-04-23 18:32 | 34.00244 | -114.69167 | 33966 ft | 377 kts | 277° |
| 2026-04-23 18:33 | 34.01263 | -114.75322 | 33966 ft | 377 kts | 277° |
| 2026-04-23 18:33 | 34.02286 | -114.81524 | 33983 ft | 377 kts | 277° |
| 2026-04-23 18:34 | 34.03306 | -114.87722 | 33974 ft | 377 kts | 277° |
| 2026-04-23 18:34 | 34.04322 | -114.93925 | 33988 ft | 377 kts | 277° |
| 2026-04-23 18:35 | 34.05335 | -115.00123 | 33978 ft | 377 kts | 277° |
| 2026-04-23 18:35 | 34.06348 | -115.06335 | 33967 ft | 377 kts | 277° |
| 2026-04-23 18:36 | 34.07352 | -115.12511 | 33972 ft | 378 kts | 277° |
| 2026-04-23 18:36 | 34.08364 | -115.18742 | 33983 ft | 379 kts | 277° |
| 2026-04-23 18:37 | 34.09373 | -115.24978 | 33983 ft | 379 kts | 277° |
| 2026-04-23 18:37 | 34.10379 | -115.31226 | 33998 ft | 380 kts | 277° |
| 2026-04-23 18:38 | 34.11377 | -115.37438 | 33989 ft | 380 kts | 277° |
| 2026-04-23 18:38 | 34.12379 | -115.43703 | 34002 ft | 381 kts | 277° |
| 2026-04-23 18:39 | 34.13380 | -115.49978 | 34002 ft | 381 kts | 277° |
| 2026-04-23 18:39 | 34.14380 | -115.56272 | 34019 ft | 382 kts | 277° |
| 2026-04-23 18:40 | 34.15370 | -115.62513 | 34008 ft | 381 kts | 277° |
| 2026-04-23 18:40 | 34.16296 | -115.68831 | 34019 ft | 381 kts | 270° |
| 2026-04-23 18:41 | 34.15954 | -115.75160 | 34027 ft | 377 kts | 261° |
| 2026-04-23 18:41 | 34.15238 | -115.81370 | 34050 ft | 376 kts | 261° |
| 2026-04-23 18:42 | 34.14584 | -115.87635 | 34066 ft | 376 kts | 262° |
| 2026-04-23 18:42 | 34.13969 | -115.93897 | 34083 ft | 376 kts | 262° |
| 2026-04-23 18:43 | 34.13357 | -116.00161 | 34087 ft | 376 kts | 262° |
| 2026-04-23 18:43 | 34.12744 | -116.06430 | 34095 ft | 376 kts | 262° |
| 2026-04-23 18:44 | 34.12130 | -116.12680 | 34112 ft | 378 kts | 262° |
| 2026-04-23 18:44 | 34.11509 | -116.18964 | 34115 ft | 376 kts | 262° |
| 2026-04-23 18:45 | 34.10884 | -116.25249 | 34070 ft | 377 kts | 262° |
| 2026-04-23 18:45 | 34.10252 | -116.31558 | 34065 ft | 379 kts | 262° |
| 2026-04-23 18:46 | 34.09585 | -116.37824 | 34054 ft | 380 kts | 261° |
| 2026-04-23 18:46 | 34.08903 | -116.44136 | 34057 ft | 380 kts | 261° |
| 2026-04-23 18:47 | 34.08222 | -116.50448 | 34084 ft | 379 kts | 261° |
| 2026-04-23 18:47 | 34.07540 | -116.56756 | 34093 ft | 379 kts | 262° |
| 2026-04-23 18:48 | 34.06891 | -116.63094 | 34096 ft | 382 kts | 262° |
| 2026-04-23 18:48 | 34.06326 | -116.69393 | 34110 ft | 380 kts | 262° |
| 2026-04-23 18:49 | 34.05746 | -116.75736 | 34126 ft | 381 kts | 262° |
| 2026-04-23 18:49 | 34.05152 | -116.82078 | 34144 ft | 380 kts | 262° |
| 2026-04-23 18:50 | 34.04657 | -116.87339 | 33991 ft | 378 kts | 262° |
| 2026-04-23 18:50 | 34.04230 | -116.91525 | 33272 ft | 382 kts | 261° |
| 2026-04-23 18:50 | 34.03820 | -116.94688 | 32504 ft | 381 kts | 259° |
| 2026-04-23 18:50 | 34.03387 | -116.97848 | 31748 ft | 383 kts | 259° |
| 2026-04-23 18:51 | 34.02955 | -117.01022 | 31007 ft | 385 kts | 260° |
| 2026-04-23 18:51 | 34.02530 | -117.04207 | 30293 ft | 384 kts | 260° |
| 2026-04-23 18:51 | 34.02141 | -117.07371 | 29493 ft | 380 kts | 261° |
| 2026-04-23 18:51 | 34.01772 | -117.10515 | 28689 ft | 377 kts | 261° |
| 2026-04-23 18:52 | 34.01409 | -117.13636 | 27889 ft | 375 kts | 261° |
| 2026-04-23 18:52 | 34.01045 | -117.16739 | 27119 ft | 373 kts | 262° |
| 2026-04-23 18:52 | 34.00678 | -117.19836 | 26426 ft | 373 kts | 262° |
| 2026-04-23 18:52 | 34.00315 | -117.22884 | 25711 ft | 372 kts | 262° |
| 2026-04-23 18:53 | 33.99946 | -117.25961 | 25006 ft | 371 kts | 262° |
| 2026-04-23 18:53 | 33.99577 | -117.29025 | 24312 ft | 369 kts | 262° |
| 2026-04-23 18:53 | 33.99210 | -117.32077 | 23506 ft | 368 kts | 262° |
| 2026-04-23 18:53 | 33.98851 | -117.35112 | 22553 ft | 363 kts | 263° |
| 2026-04-23 18:54 | 33.98502 | -117.38091 | 21623 ft | 355 kts | 263° |
| 2026-04-23 18:54 | 33.98159 | -117.41016 | 20731 ft | 351 kts | 263° |
| 2026-04-23 18:54 | 33.97818 | -117.43913 | 19860 ft | 347 kts | 263° |
| 2026-04-23 18:54 | 33.97484 | -117.46737 | 19024 ft | 342 kts | 263° |
| 2026-04-23 18:55 | 33.97150 | -117.49563 | 18165 ft | 340 kts | 263° |
| 2026-04-23 18:55 | 33.96817 | -117.52370 | 17230 ft | 336 kts | 263° |
| 2026-04-23 18:55 | 33.96488 | -117.55140 | 16322 ft | 332 kts | 263° |
| 2026-04-23 18:55 | 33.96162 | -117.57885 | 15445 ft | 329 kts | 263° |
| 2026-04-23 18:56 | 33.95948 | -117.59687 | 14876 ft | 327 kts | 263° |
| 2026-04-23 18:56 | 33.95517 | -117.63301 | 13750 ft | 325 kts | 263° |
| 2026-04-23 18:56 | 33.95195 | -117.65994 | 12819 ft | 324 kts | 263° |
| 2026-04-23 18:56 | 33.94640 | -117.68611 | 11917 ft | 325 kts | 252° |
| 2026-04-23 18:57 | 33.94000 | -117.71172 | 11047 ft | 321 kts | 262° |
| 2026-04-23 18:57 | 33.94066 | -117.73830 | 10416 ft | 320 kts | 284° |
| 2026-04-23 18:57 | 33.95030 | -117.76248 | 10149 ft | 324 kts | 306° |
| 2026-04-23 18:57 | 33.96466 | -117.78326 | 9964 ft | 316 kts | 309° |
| 2026-04-23 18:58 | 33.97876 | -117.80270 | 9382 ft | 303 kts | 310° |
| 2026-04-23 18:58 | 33.99263 | -117.82156 | 8578 ft | 300 kts | 310° |
| 2026-04-23 18:58 | 34.00328 | -117.84287 | 7728 ft | 298 kts | 289° |
| 2026-04-23 18:58 | 34.00576 | -117.86750 | 6921 ft | 298 kts | 265° |
| 2026-04-23 18:59 | 34.00343 | -117.89241 | 6077 ft | 300 kts | 263° |
| 2026-04-23 18:59 | 34.00088 | -117.91697 | 5408 ft | 295 kts | 263° |
| 2026-04-23 18:59 | 33.99841 | -117.94082 | 5139 ft | 278 kts | 264° |
| 2026-04-23 18:59 | 33.99609 | -117.96388 | 5024 ft | 282 kts | 264° |
| 2026-04-23 19:00 | 33.99380 | -117.98696 | 4996 ft | 268 kts | 264° |
| 2026-04-23 19:00 | 33.99163 | -118.00867 | 4735 ft | 256 kts | 264° |
| 2026-04-23 19:00 | 33.98952 | -118.03003 | 4188 ft | 259 kts | 264° |
| 2026-04-23 19:00 | 33.98743 | -118.05168 | 3559 ft | 261 kts | 264° |
| 2026-04-23 19:01 | 33.98558 | -118.07315 | 3159 ft | 252 kts | 263° |
| 2026-04-23 19:01 | 33.98348 | -118.09403 | 3022 ft | 249 kts | 263° |
| 2026-04-23 19:01 | 33.98142 | -118.11441 | 3001 ft | 245 kts | 263° |
| 2026-04-23 19:01 | 33.97936 | -118.13458 | 2984 ft | 245 kts | 263° |
| 2026-04-23 19:02 | 33.97798 | -118.14812 | 2982 ft | 235 kts | 263° |
| 2026-04-23 19:02 | 33.97548 | -118.17265 | 2708 ft | 210 kts | 263° |
| 2026-04-23 19:02 | 33.97377 | -118.18947 | 2246 ft | 196 kts | 262° |
| 2026-04-23 19:02 | 33.97217 | -118.20511 | 2031 ft | 189 kts | 263° |
| 2026-04-23 19:03 | 33.97061 | -118.22049 | 1986 ft | 174 kts | 262° |
| 2026-04-23 19:03 | 33.96915 | -118.23475 | 1999 ft | 170 kts | 262° |
| 2026-04-23 19:03 | 33.96776 | -118.24844 | 1904 ft | 158 kts | 262° |
| 2026-04-23 19:03 | 33.96643 | -118.26137 | 1927 ft | 159 kts | 262° |
| 2026-04-23 19:04 | 33.96507 | -118.27470 | 1935 ft | 163 kts | 262° |
| 2026-04-23 19:04 | 33.96371 | -118.28810 | 1866 ft | 162 kts | 262° |
| 2026-04-23 19:04 | 33.96237 | -118.30133 | 1636 ft | 161 kts | 262° |
| 2026-04-23 19:04 | 33.96104 | -118.31431 | 1468 ft | 148 kts | 262° |
| 2026-04-23 19:05 | 33.95983 | -118.32626 | 1376 ft | 141 kts | 262° |
| 2026-04-23 19:05 | 33.95864 | -118.33784 | 1124 ft | 140 kts | 263° |
| 2026-04-23 19:05 | 33.95745 | -118.34953 | 908 ft | 141 kts | 262° |
| 2026-04-23 19:05 | 33.95626 | -118.36122 | 777 ft | 141 kts | 262° |
| 2026-04-23 19:06 | 33.95506 | -118.37299 | 592 ft | 142 kts | 263° |
| 2026-04-23 19:06 | 33.95389 | -118.38480 | 405 ft | 143 kts | 263° |
| 2026-04-23 19:06 | 33.95264 | -118.39667 | 238 ft | 143 kts | 262° |
| 2026-04-23 19:06 | 33.95143 | -118.40851 | 140 ft | 137 kts | 264° |
| 2026-04-23 19:07 | 33.95049 | -118.41788 | 125 ft | 78 kts | 263° |
| 2026-04-23 19:07 | 33.95023 | -118.42034 | 125 ft | 29 kts | 262° |